sensor_id;sensor_type;location;lat;lon;timestamp;P1;durP1;ratioP1;P2;durP2;ratioP2
72864;SDS011;61000;48.120;11.548;2023-04-24T00:01:33;2.47;;;1.63;;
72864;SDS011;61000;48.120;11.548;2023-04-24T00:04:02;2.20;;;2.00;;
72864;SDS011;61000;48.120;11.548;2023-04-24T00:06:29;1.98;;;1.58;;
72864;SDS011;61000;48.120;11.548;2023-04-24T00:08:58;2.83;;;1.48;;
72864;SDS011;61000;48.120;11.548;2023-04-24T00:11:25;2.10;;;1.50;;
72864;SDS011;61000;48.120;11.548;2023-04-24T00:13:52;1.88;;;1.50;;
72864;SDS011;61000;48.120;11.548;2023-04-24T00:16:21;2.50;;;1.50;;
72864;SDS011;61000;48.120;11.548;2023-04-24T00:18:48;1.55;;;1.45;;
72864;SDS011;61000;48.120;11.548;2023-04-24T00:21:15;1.60;;;1.50;;
72864;SDS011;61000;48.120;11.548;2023-04-24T00:23:42;1.80;;;1.65;;
72864;SDS011;61000;48.120;11.548;2023-04-24T00:26:09;1.58;;;1.30;;
72864;SDS011;61000;48.120;11.548;2023-04-24T00:28:36;2.15;;;1.40;;
72864;SDS011;61000;48.120;11.548;2023-04-24T00:31:03;1.60;;;1.50;;
72864;SDS011;61000;48.120;11.548;2023-04-24T00:33:32;1.27;;;1.17;;
72864;SDS011;61000;48.120;11.548;2023-04-24T00:35:59;1.42;;;1.33;;
72864;SDS011;61000;48.120;11.548;2023-04-24T00:38:25;1.55;;;1.30;;
72864;SDS011;61000;48.120;11.548;2023-04-24T00:40:52;1.80;;;1.25;;
72864;SDS011;61000;48.120;11.548;2023-04-24T00:43:20;1.30;;;1.20;;
72864;SDS011;61000;48.120;11.548;2023-04-24T00:45:47;2.58;;;1.42;;
72864;SDS011;61000;48.120;11.548;2023-04-24T00:48:14;1.52;;;1.00;;
72864;SDS011;61000;48.120;11.548;2023-04-24T00:50:42;1.20;;;1.20;;
72864;SDS011;61000;48.120;11.548;2023-04-24T00:53:09;2.20;;;1.27;;
72864;SDS011;61000;48.120;11.548;2023-04-24T00:55:36;1.63;;;1.33;;
72864;SDS011;61000;48.120;11.548;2023-04-24T00:58:03;1.70;;;1.20;;
72864;SDS011;61000;48.120;11.548;2023-04-24T01:00:31;1.88;;;1.20;;
72864;SDS011;61000;48.120;11.548;2023-04-24T01:02:58;1.50;;;1.40;;
72864;SDS011;61000;48.120;11.548;2023-04-24T01:05:27;1.90;;;1.52;;
72864;SDS011;61000;48.120;11.548;2023-04-24T01:07:56;1.20;;;1.10;;
72864;SDS011;61000;48.120;11.548;2023-04-24T01:10:24;2.13;;;1.20;;
72864;SDS011;61000;48.120;11.548;2023-04-24T01:12:53;1.65;;;1.00;;
72864;SDS011;61000;48.120;11.548;2023-04-24T01:15:20;1.00;;;1.00;;
72864;SDS011;61000;48.120;11.548;2023-04-24T01:17:47;1.92;;;1.83;;
72864;SDS011;61000;48.120;11.548;2023-04-24T01:20:13;1.08;;;1.00;;
72864;SDS011;61000;48.120;11.548;2023-04-24T01:22:42;0.90;;;0.90;;
72864;SDS011;61000;48.120;11.548;2023-04-24T01:25:09;1.25;;;1.10;;
72864;SDS011;61000;48.120;11.548;2023-04-24T01:27:36;1.48;;;1.10;;
72864;SDS011;61000;48.120;11.548;2023-04-24T01:30:04;1.10;;;1.00;;
72864;SDS011;61000;48.120;11.548;2023-04-24T01:32:32;1.10;;;1.00;;
72864;SDS011;61000;48.120;11.548;2023-04-24T01:34:59;1.20;;;1.20;;
72864;SDS011;61000;48.120;11.548;2023-04-24T01:37:26;1.20;;;1.20;;
72864;SDS011;61000;48.120;11.548;2023-04-24T01:39:55;1.30;;;1.23;;
72864;SDS011;61000;48.120;11.548;2023-04-24T01:42:22;1.20;;;1.10;;
72864;SDS011;61000;48.120;11.548;2023-04-24T01:44:49;1.50;;;1.10;;
72864;SDS011;61000;48.120;11.548;2023-04-24T01:47:16;0.93;;;0.93;;
72864;SDS011;61000;48.120;11.548;2023-04-24T01:49:43;1.30;;;1.20;;
72864;SDS011;61000;48.120;11.548;2023-04-24T01:52:14;1.00;;;1.00;;
72864;SDS011;61000;48.120;11.548;2023-04-24T01:54:41;1.13;;;1.10;;
72864;SDS011;61000;48.120;11.548;2023-04-24T01:57:09;0.90;;;0.90;;
72864;SDS011;61000;48.120;11.548;2023-04-24T01:59:36;1.95;;;0.80;;
72864;SDS011;61000;48.120;11.548;2023-04-24T02:02:03;1.25;;;1.10;;
72864;SDS011;61000;48.120;11.548;2023-04-24T02:04:30;1.00;;;1.00;;
72864;SDS011;61000;48.120;11.548;2023-04-24T02:06:57;1.92;;;1.05;;
72864;SDS011;61000;48.120;11.548;2023-04-24T02:09:24;1.10;;;1.00;;
72864;SDS011;61000;48.120;11.548;2023-04-24T02:11:51;1.00;;;0.90;;
72864;SDS011;61000;48.120;11.548;2023-04-24T02:14:19;0.85;;;0.85;;
72864;SDS011;61000;48.120;11.548;2023-04-24T02:16:46;1.02;;;0.90;;
72864;SDS011;61000;48.120;11.548;2023-04-24T02:19:13;1.42;;;0.90;;
72864;SDS011;61000;48.120;11.548;2023-04-24T02:21:40;2.55;;;1.00;;
72864;SDS011;61000;48.120;11.548;2023-04-24T02:24:07;0.90;;;0.90;;
72864;SDS011;61000;48.120;11.548;2023-04-24T02:26:34;0.80;;;0.80;;
72864;SDS011;61000;48.120;11.548;2023-04-24T02:29:01;1.05;;;1.00;;
72864;SDS011;61000;48.120;11.548;2023-04-24T02:31:32;1.15;;;0.80;;
72864;SDS011;61000;48.120;11.548;2023-04-24T02:33:59;0.90;;;0.90;;
72864;SDS011;61000;48.120;11.548;2023-04-24T02:36:26;0.95;;;0.95;;
72864;SDS011;61000;48.120;11.548;2023-04-24T02:38:53;0.90;;;0.90;;
72864;SDS011;61000;48.120;11.548;2023-04-24T02:41:20;1.15;;;0.90;;
72864;SDS011;61000;48.120;11.548;2023-04-24T02:43:47;0.90;;;0.90;;
72864;SDS011;61000;48.120;11.548;2023-04-24T02:46:14;0.90;;;0.90;;
72864;SDS011;61000;48.120;11.548;2023-04-24T02:48:43;0.90;;;0.90;;
72864;SDS011;61000;48.120;11.548;2023-04-24T02:51:09;1.38;;;1.20;;
72864;SDS011;61000;48.120;11.548;2023-04-24T02:53:36;0.95;;;0.95;;
72864;SDS011;61000;48.120;11.548;2023-04-24T02:56:03;0.85;;;0.85;;
72864;SDS011;61000;48.120;11.548;2023-04-24T02:58:31;0.80;;;0.80;;
72864;SDS011;61000;48.120;11.548;2023-04-24T03:00:58;0.90;;;0.90;;
72864;SDS011;61000;48.120;11.548;2023-04-24T03:03:25;1.10;;;1.00;;
72864;SDS011;61000;48.120;11.548;2023-04-24T03:05:53;1.15;;;1.05;;
72864;SDS011;61000;48.120;11.548;2023-04-24T03:08:20;0.90;;;0.90;;
72864;SDS011;61000;48.120;11.548;2023-04-24T03:10:47;1.02;;;1.02;;
72864;SDS011;61000;48.120;11.548;2023-04-24T03:13:15;1.23;;;1.15;;
72864;SDS011;61000;48.120;11.548;2023-04-24T03:15:42;1.25;;;1.13;;
72864;SDS011;61000;48.120;11.548;2023-04-24T03:18:10;3.22;;;1.27;;
72864;SDS011;61000;48.120;11.548;2023-04-24T03:20:37;1.13;;;0.98;;
72864;SDS011;61000;48.120;11.548;2023-04-24T03:23:05;1.15;;;1.15;;
72864;SDS011;61000;48.120;11.548;2023-04-24T03:25:33;0.95;;;0.95;;
72864;SDS011;61000;48.120;11.548;2023-04-24T03:28:00;1.20;;;1.10;;
72864;SDS011;61000;48.120;11.548;2023-04-24T03:30:38;1.13;;;1.13;;
72864;SDS011;61000;48.120;11.548;2023-04-24T03:33:06;1.13;;;1.13;;
72864;SDS011;61000;48.120;11.548;2023-04-24T03:35:37;1.20;;;1.10;;
72864;SDS011;61000;48.120;11.548;2023-04-24T03:38:09;1.83;;;1.17;;
72864;SDS011;61000;48.120;11.548;2023-04-24T03:40:39;1.00;;;1.00;;
72864;SDS011;61000;48.120;11.548;2023-04-24T03:43:20;1.48;;;1.17;;
72864;SDS011;61000;48.120;11.548;2023-04-24T03:45:48;1.40;;;1.30;;
72864;SDS011;61000;48.120;11.548;2023-04-24T03:48:16;1.42;;;1.10;;
72864;SDS011;61000;48.120;11.548;2023-04-24T03:50:43;1.50;;;1.38;;
72864;SDS011;61000;48.120;11.548;2023-04-24T03:53:13;1.70;;;1.42;;
72864;SDS011;61000;48.120;11.548;2023-04-24T03:55:40;1.42;;;1.30;;
72864;SDS011;61000;48.120;11.548;2023-04-24T03:58:08;1.35;;;1.20;;
72864;SDS011;61000;48.120;11.548;2023-04-24T04:00:36;1.20;;;1.10;;
72864;SDS011;61000;48.120;11.548;2023-04-24T04:03:25;1.00;;;1.00;;
72864;SDS011;61000;48.120;11.548;2023-04-24T04:05:52;1.25;;;1.10;;
72864;SDS011;61000;48.120;11.548;2023-04-24T04:08:21;1.27;;;1.17;;
72864;SDS011;61000;48.120;11.548;2023-04-24T04:10:47;1.17;;;1.05;;
72864;SDS011;61000;48.120;11.548;2023-04-24T04:13:14;1.20;;;1.10;;
72864;SDS011;61000;48.120;11.548;2023-04-24T04:15:41;1.02;;;1.02;;
72864;SDS011;61000;48.120;11.548;2023-04-24T04:18:09;1.30;;;1.23;;
72864;SDS011;61000;48.120;11.548;2023-04-24T04:20:36;2.40;;;1.38;;
72864;SDS011;61000;48.120;11.548;2023-04-24T04:23:03;1.33;;;1.10;;
72864;SDS011;61000;48.120;11.548;2023-04-24T04:25:44;0.90;;;0.90;;
72864;SDS011;61000;48.120;11.548;2023-04-24T04:28:12;1.10;;;1.00;;
72864;SDS011;61000;48.120;11.548;2023-04-24T04:30:41;2.78;;;1.13;;
72864;SDS011;61000;48.120;11.548;2023-04-24T04:33:08;1.30;;;1.25;;
72864;SDS011;61000;48.120;11.548;2023-04-24T04:35:36;1.13;;;1.02;;
72864;SDS011;61000;48.120;11.548;2023-04-24T04:38:03;1.33;;;1.23;;
72864;SDS011;61000;48.120;11.548;2023-04-24T04:40:51;1.45;;;1.35;;
72864;SDS011;61000;48.120;11.548;2023-04-24T04:43:20;1.30;;;1.20;;
72864;SDS011;61000;48.120;11.548;2023-04-24T04:45:50;2.63;;;1.27;;
72864;SDS011;61000;48.120;11.548;2023-04-24T04:48:31;1.10;;;1.10;;
72864;SDS011;61000;48.120;11.548;2023-04-24T04:51:00;2.15;;;1.50;;
72864;SDS011;61000;48.120;11.548;2023-04-24T04:53:28;1.98;;;1.20;;
72864;SDS011;61000;48.120;11.548;2023-04-24T04:55:57;1.67;;;1.50;;
72864;SDS011;61000;48.120;11.548;2023-04-24T04:58:34;1.63;;;1.48;;
72864;SDS011;61000;48.120;11.548;2023-04-24T05:01:02;1.98;;;1.30;;
72864;SDS011;61000;48.120;11.548;2023-04-24T05:03:37;1.95;;;1.25;;
72864;SDS011;61000;48.120;11.548;2023-04-24T05:06:08;1.83;;;1.73;;
72864;SDS011;61000;48.120;11.548;2023-04-24T05:08:38;1.38;;;1.13;;
72864;SDS011;61000;48.120;11.548;2023-04-24T05:11:09;1.98;;;1.50;;
72864;SDS011;61000;48.120;11.548;2023-04-24T05:13:38;2.08;;;1.50;;
72864;SDS011;61000;48.120;11.548;2023-04-24T05:16:09;1.92;;;1.30;;
72864;SDS011;61000;48.120;11.548;2023-04-24T05:18:36;1.23;;;1.10;;
72864;SDS011;61000;48.120;11.548;2023-04-24T05:21:05;3.47;;;1.60;;
72864;SDS011;61000;48.120;11.548;2023-04-24T05:23:32;2.00;;;1.80;;
72864;SDS011;61000;48.120;11.548;2023-04-24T05:26:00;1.20;;;1.20;;
72864;SDS011;61000;48.120;11.548;2023-04-24T05:28:30;1.33;;;1.20;;
72864;SDS011;61000;48.120;11.548;2023-04-24T05:31:04;3.40;;;1.20;;
72864;SDS011;61000;48.120;11.548;2023-04-24T05:33:31;1.10;;;1.10;;
72864;SDS011;61000;48.120;11.548;2023-04-24T05:35:59;2.65;;;1.20;;
72864;SDS011;61000;48.120;11.548;2023-04-24T05:38:26;1.17;;;1.08;;
72864;SDS011;61000;48.120;11.548;2023-04-24T05:40:53;1.52;;;1.05;;
72864;SDS011;61000;48.120;11.548;2023-04-24T05:43:19;1.02;;;0.95;;
72864;SDS011;61000;48.120;11.548;2023-04-24T05:45:48;0.82;;;0.82;;
72864;SDS011;61000;48.120;11.548;2023-04-24T05:48:16;0.95;;;0.95;;
72864;SDS011;61000;48.120;11.548;2023-04-24T05:50:45;1.25;;;1.15;;
72864;SDS011;61000;48.120;11.548;2023-04-24T05:53:13;1.10;;;1.10;;
72864;SDS011;61000;48.120;11.548;2023-04-24T05:55:40;2.10;;;1.42;;
72864;SDS011;61000;48.120;11.548;2023-04-24T05:58:13;1.58;;;1.20;;
72864;SDS011;61000;48.120;11.548;2023-04-24T06:00:41;0.90;;;0.90;;
72864;SDS011;61000;48.120;11.548;2023-04-24T06:03:09;1.02;;;1.02;;
72864;SDS011;61000;48.120;11.548;2023-04-24T06:05:36;1.75;;;1.05;;
72864;SDS011;61000;48.120;11.548;2023-04-24T06:08:03;1.10;;;1.00;;
72864;SDS011;61000;48.120;11.548;2023-04-24T06:10:35;2.28;;;1.00;;
72864;SDS011;61000;48.120;11.548;2023-04-24T06:13:02;2.05;;;0.90;;
72864;SDS011;61000;48.120;11.548;2023-04-24T06:15:31;1.00;;;1.00;;
72864;SDS011;61000;48.120;11.548;2023-04-24T06:18:03;2.08;;;1.00;;
72864;SDS011;61000;48.120;11.548;2023-04-24T06:20:32;2.67;;;1.00;;
72864;SDS011;61000;48.120;11.548;2023-04-24T06:23:00;1.05;;;0.95;;
72864;SDS011;61000;48.120;11.548;2023-04-24T06:25:27;1.10;;;1.00;;
72864;SDS011;61000;48.120;11.548;2023-04-24T06:27:54;1.00;;;0.90;;
72864;SDS011;61000;48.120;11.548;2023-04-24T06:30:22;2.15;;;0.93;;
72864;SDS011;61000;48.120;11.548;2023-04-24T06:32:50;0.70;;;0.70;;
72864;SDS011;61000;48.120;11.548;2023-04-24T06:35:17;0.95;;;0.95;;
72864;SDS011;61000;48.120;11.548;2023-04-24T06:37:45;4.43;;;1.00;;
72864;SDS011;61000;48.120;11.548;2023-04-24T06:40:12;2.15;;;0.90;;
72864;SDS011;61000;48.120;11.548;2023-04-24T06:42:39;2.55;;;1.10;;
72864;SDS011;61000;48.120;11.548;2023-04-24T06:45:08;0.70;;;0.70;;
72864;SDS011;61000;48.120;11.548;2023-04-24T06:47:35;2.53;;;0.95;;
72864;SDS011;61000;48.120;11.548;2023-04-24T06:50:03;1.00;;;0.90;;
72864;SDS011;61000;48.120;11.548;2023-04-24T06:52:30;0.60;;;0.60;;
72864;SDS011;61000;48.120;11.548;2023-04-24T06:55:01;1.00;;;0.90;;
72864;SDS011;61000;48.120;11.548;2023-04-24T06:57:28;0.90;;;0.90;;
72864;SDS011;61000;48.120;11.548;2023-04-24T06:59:55;0.70;;;0.70;;
72864;SDS011;61000;48.120;11.548;2023-04-24T07:02:22;1.00;;;1.00;;
72864;SDS011;61000;48.120;11.548;2023-04-24T07:04:49;1.00;;;1.00;;
72864;SDS011;61000;48.120;11.548;2023-04-24T07:07:16;0.80;;;0.80;;
72864;SDS011;61000;48.120;11.548;2023-04-24T07:09:42;1.20;;;1.10;;
72864;SDS011;61000;48.120;11.548;2023-04-24T07:12:12;1.10;;;1.00;;
72864;SDS011;61000;48.120;11.548;2023-04-24T07:14:39;1.40;;;1.30;;
72864;SDS011;61000;48.120;11.548;2023-04-24T07:17:05;0.82;;;0.82;;
72864;SDS011;61000;48.120;11.548;2023-04-24T07:19:33;0.73;;;0.70;;
72864;SDS011;61000;48.120;11.548;2023-04-24T07:22:00;1.58;;;0.70;;
72864;SDS011;61000;48.120;11.548;2023-04-24T07:24:28;0.70;;;0.70;;
72864;SDS011;61000;48.120;11.548;2023-04-24T07:26:57;0.80;;;0.80;;
72864;SDS011;61000;48.120;11.548;2023-04-24T07:29:25;1.15;;;0.90;;
72864;SDS011;61000;48.120;11.548;2023-04-24T07:31:52;0.90;;;0.90;;
72864;SDS011;61000;48.120;11.548;2023-04-24T07:34:20;0.80;;;0.80;;
72864;SDS011;61000;48.120;11.548;2023-04-24T07:36:46;0.70;;;0.70;;
72864;SDS011;61000;48.120;11.548;2023-04-24T07:39:13;0.80;;;0.80;;
72864;SDS011;61000;48.120;11.548;2023-04-24T07:41:40;2.03;;;1.45;;
72864;SDS011;61000;48.120;11.548;2023-04-24T07:44:07;2.72;;;2.40;;
72864;SDS011;61000;48.120;11.548;2023-04-24T07:46:36;2.20;;;1.73;;
72864;SDS011;61000;48.120;11.548;2023-04-24T07:49:03;1.60;;;1.20;;
72864;SDS011;61000;48.120;11.548;2023-04-24T07:51:30;0.82;;;0.82;;
72864;SDS011;61000;48.120;11.548;2023-04-24T07:53:58;1.08;;;0.80;;
72864;SDS011;61000;48.120;11.548;2023-04-24T07:56:25;0.90;;;0.90;;
72864;SDS011;61000;48.120;11.548;2023-04-24T07:58:56;0.60;;;0.60;;
72864;SDS011;61000;48.120;11.548;2023-04-24T08:01:23;1.65;;;1.10;;
72864;SDS011;61000;48.120;11.548;2023-04-24T08:03:51;1.02;;;1.02;;
72864;SDS011;61000;48.120;11.548;2023-04-24T08:06:18;0.80;;;0.80;;
72864;SDS011;61000;48.120;11.548;2023-04-24T08:08:45;1.23;;;1.15;;
72864;SDS011;61000;48.120;11.548;2023-04-24T08:11:12;1.17;;;0.75;;
72864;SDS011;61000;48.120;11.548;2023-04-24T08:13:39;1.00;;;0.90;;
72864;SDS011;61000;48.120;11.548;2023-04-24T08:16:06;1.40;;;1.20;;
72864;SDS011;61000;48.120;11.548;2023-04-24T08:18:32;0.90;;;0.90;;
72864;SDS011;61000;48.120;11.548;2023-04-24T08:21:02;1.65;;;1.55;;
72864;SDS011;61000;48.120;11.548;2023-04-24T08:23:29;1.20;;;0.95;;
72864;SDS011;61000;48.120;11.548;2023-04-24T08:25:56;0.70;;;0.70;;
72864;SDS011;61000;48.120;11.548;2023-04-24T08:28:23;1.23;;;0.75;;
72864;SDS011;61000;48.120;11.548;2023-04-24T08:30:51;1.05;;;0.93;;
72864;SDS011;61000;48.120;11.548;2023-04-24T08:33:19;1.65;;;0.90;;
72864;SDS011;61000;48.120;11.548;2023-04-24T08:35:46;0.80;;;0.80;;
72864;SDS011;61000;48.120;11.548;2023-04-24T08:38:14;0.70;;;0.70;;
72864;SDS011;61000;48.120;11.548;2023-04-24T08:40:41;0.70;;;0.70;;
72864;SDS011;61000;48.120;11.548;2023-04-24T08:43:11;1.92;;;0.82;;
72864;SDS011;61000;48.120;11.548;2023-04-24T08:45:39;1.73;;;1.10;;
72864;SDS011;61000;48.120;11.548;2023-04-24T08:48:09;1.80;;;1.30;;
72864;SDS011;61000;48.120;11.548;2023-04-24T08:50:36;1.90;;;1.15;;
72864;SDS011;61000;48.120;11.548;2023-04-24T08:53:06;1.30;;;1.20;;
72864;SDS011;61000;48.120;11.548;2023-04-24T08:55:35;1.10;;;1.08;;
72864;SDS011;61000;48.120;11.548;2023-04-24T08:58:03;1.40;;;1.30;;
72864;SDS011;61000;48.120;11.548;2023-04-24T09:00:31;2.05;;;1.40;;
72864;SDS011;61000;48.120;11.548;2023-04-24T09:03:00;1.30;;;1.20;;
72864;SDS011;61000;48.120;11.548;2023-04-24T09:05:28;2.67;;;1.50;;
72864;SDS011;61000;48.120;11.548;2023-04-24T09:07:55;1.50;;;1.40;;
72864;SDS011;61000;48.120;11.548;2023-04-24T09:10:23;1.10;;;1.00;;
72864;SDS011;61000;48.120;11.548;2023-04-24T09:12:52;2.40;;;1.30;;
72864;SDS011;61000;48.120;11.548;2023-04-24T09:15:21;2.78;;;1.30;;
72864;SDS011;61000;48.120;11.548;2023-04-24T09:17:49;1.20;;;1.20;;
72864;SDS011;61000;48.120;11.548;2023-04-24T09:20:16;1.80;;;1.40;;
72864;SDS011;61000;48.120;11.548;2023-04-24T09:22:43;4.32;;;1.73;;
72864;SDS011;61000;48.120;11.548;2023-04-24T09:25:11;1.70;;;1.60;;
72864;SDS011;61000;48.120;11.548;2023-04-24T09:27:41;2.25;;;2.05;;
72864;SDS011;61000;48.120;11.548;2023-04-24T09:30:11;2.83;;;1.90;;
72864;SDS011;61000;48.120;11.548;2023-04-24T09:32:38;1.63;;;1.52;;
72864;SDS011;61000;48.120;11.548;2023-04-24T09:35:10;2.88;;;1.65;;
72864;SDS011;61000;48.120;11.548;2023-04-24T09:37:39;1.73;;;1.63;;
72864;SDS011;61000;48.120;11.548;2023-04-24T09:40:10;3.13;;;1.88;;
72864;SDS011;61000;48.120;11.548;2023-04-24T09:42:38;1.77;;;1.67;;
72864;SDS011;61000;48.120;11.548;2023-04-24T09:45:08;1.50;;;1.40;;
72864;SDS011;61000;48.120;11.548;2023-04-24T09:47:37;1.67;;;1.52;;
72864;SDS011;61000;48.120;11.548;2023-04-24T09:50:14;1.40;;;1.30;;
72864;SDS011;61000;48.120;11.548;2023-04-24T09:52:43;1.60;;;1.20;;
72864;SDS011;61000;48.120;11.548;2023-04-24T09:55:11;1.40;;;1.30;;
72864;SDS011;61000;48.120;11.548;2023-04-24T09:57:55;2.35;;;1.23;;
72864;SDS011;61000;48.120;11.548;2023-04-24T10:00:25;1.40;;;1.20;;
72864;SDS011;61000;48.120;11.548;2023-04-24T10:02:56;2.17;;;1.40;;
72864;SDS011;61000;48.120;11.548;2023-04-24T10:05:24;2.55;;;1.67;;
72864;SDS011;61000;48.120;11.548;2023-04-24T10:07:55;1.20;;;1.10;;
72864;SDS011;61000;48.120;11.548;2023-04-24T10:10:23;1.50;;;1.40;;
72864;SDS011;61000;48.120;11.548;2023-04-24T10:12:50;1.50;;;1.40;;
72864;SDS011;61000;48.120;11.548;2023-04-24T10:15:18;2.55;;;1.20;;
72864;SDS011;61000;48.120;11.548;2023-04-24T10:17:47;1.80;;;1.38;;
72864;SDS011;61000;48.120;11.548;2023-04-24T10:20:18;4.93;;;1.30;;
72864;SDS011;61000;48.120;11.548;2023-04-24T10:22:47;1.73;;;1.35;;
72864;SDS011;61000;48.120;11.548;2023-04-24T10:25:16;2.13;;;1.50;;
72864;SDS011;61000;48.120;11.548;2023-04-24T10:27:49;1.50;;;1.40;;
72864;SDS011;61000;48.120;11.548;2023-04-24T10:30:18;1.95;;;1.48;;
72864;SDS011;61000;48.120;11.548;2023-04-24T10:32:47;1.55;;;1.20;;
72864;SDS011;61000;48.120;11.548;2023-04-24T10:35:15;1.60;;;1.50;;
72864;SDS011;61000;48.120;11.548;2023-04-24T10:37:45;2.67;;;1.40;;
72864;SDS011;61000;48.120;11.548;2023-04-24T10:40:16;1.60;;;1.50;;
72864;SDS011;61000;48.120;11.548;2023-04-24T10:42:46;1.52;;;1.42;;
72864;SDS011;61000;48.120;11.548;2023-04-24T10:45:17;1.40;;;1.30;;
72864;SDS011;61000;48.120;11.548;2023-04-24T10:47:54;1.90;;;1.80;;
72864;SDS011;61000;48.120;11.548;2023-04-24T10:50:25;2.03;;;1.60;;
72864;SDS011;61000;48.120;11.548;2023-04-24T10:52:53;1.38;;;1.27;;
72864;SDS011;61000;48.120;11.548;2023-04-24T10:55:40;2.00;;;1.35;;
72864;SDS011;61000;48.120;11.548;2023-04-24T10:58:09;1.95;;;1.42;;
72864;SDS011;61000;48.120;11.548;2023-04-24T11:00:37;1.38;;;1.27;;
72864;SDS011;61000;48.120;11.548;2023-04-24T11:03:06;1.38;;;1.27;;
72864;SDS011;61000;48.120;11.548;2023-04-24T11:05:52;1.55;;;1.20;;
72864;SDS011;61000;48.120;11.548;2023-04-24T11:08:23;1.60;;;1.30;;
72864;SDS011;61000;48.120;11.548;2023-04-24T11:10:56;1.17;;;1.00;;
72864;SDS011;61000;48.120;11.548;2023-04-24T11:13:32;1.60;;;1.30;;
72864;SDS011;61000;48.120;11.548;2023-04-24T11:16:29;2.15;;;2.05;;
72864;SDS011;61000;48.120;11.548;2023-04-24T11:19:03;1.38;;;1.30;;
72864;SDS011;61000;48.120;11.548;2023-04-24T11:21:32;1.40;;;1.30;;
72864;SDS011;61000;48.120;11.548;2023-04-24T11:24:23;2.60;;;1.80;;
72864;SDS011;61000;48.120;11.548;2023-04-24T11:26:51;1.67;;;1.58;;
72864;SDS011;61000;48.120;11.548;2023-04-24T11:29:20;2.28;;;1.67;;
72864;SDS011;61000;48.120;11.548;2023-04-24T11:31:49;2.17;;;1.55;;
72864;SDS011;61000;48.120;11.548;2023-04-24T11:34:16;2.70;;;2.50;;
72864;SDS011;61000;48.120;11.548;2023-04-24T11:36:44;2.10;;;1.90;;
72864;SDS011;61000;48.120;11.548;2023-04-24T11:39:12;5.15;;;2.22;;
72864;SDS011;61000;48.120;11.548;2023-04-24T11:41:39;2.25;;;2.05;;
72864;SDS011;61000;48.120;11.548;2023-04-24T11:44:07;1.70;;;1.60;;
72864;SDS011;61000;48.120;11.548;2023-04-24T11:46:36;1.73;;;1.63;;
72864;SDS011;61000;48.120;11.548;2023-04-24T11:49:06;4.10;;;1.90;;
72864;SDS011;61000;48.120;11.548;2023-04-24T11:51:33;2.42;;;1.85;;
72864;SDS011;61000;48.120;11.548;2023-04-24T11:54:01;1.60;;;1.50;;
72864;SDS011;61000;48.120;11.548;2023-04-24T11:56:28;2.25;;;1.65;;
72864;SDS011;61000;48.120;11.548;2023-04-24T11:58:55;2.78;;;1.77;;
72864;SDS011;61000;48.120;11.548;2023-04-24T12:01:21;2.58;;;1.40;;
72864;SDS011;61000;48.120;11.548;2023-04-24T12:03:49;1.60;;;1.50;;
72864;SDS011;61000;48.120;11.548;2023-04-24T12:06:18;1.90;;;1.45;;
72864;SDS011;61000;48.120;11.548;2023-04-24T12:08:45;2.55;;;1.50;;
72864;SDS011;61000;48.120;11.548;2023-04-24T12:11:14;1.30;;;1.20;;
72864;SDS011;61000;48.120;11.548;2023-04-24T12:13:43;1.20;;;1.20;;
72864;SDS011;61000;48.120;11.548;2023-04-24T12:16:11;2.13;;;1.40;;
72864;SDS011;61000;48.120;11.548;2023-04-24T12:18:42;1.25;;;1.15;;
72864;SDS011;61000;48.120;11.548;2023-04-24T12:21:23;1.42;;;1.33;;
72864;SDS011;61000;48.120;11.548;2023-04-24T12:23:53;1.40;;;1.30;;
72864;SDS011;61000;48.120;11.548;2023-04-24T12:26:21;1.50;;;1.40;;
72864;SDS011;61000;48.120;11.548;2023-04-24T12:28:49;2.40;;;1.45;;
72864;SDS011;61000;48.120;11.548;2023-04-24T12:31:18;1.58;;;1.48;;
72864;SDS011;61000;48.120;11.548;2023-04-24T12:33:47;1.48;;;1.38;;
72864;SDS011;61000;48.120;11.548;2023-04-24T12:36:14;1.48;;;1.33;;
72864;SDS011;61000;48.120;11.548;2023-04-24T12:38:43;1.45;;;1.35;;
72864;SDS011;61000;48.120;11.548;2023-04-24T12:41:12;2.15;;;1.67;;
72864;SDS011;61000;48.120;11.548;2023-04-24T12:43:50;1.70;;;1.27;;
72864;SDS011;61000;48.120;11.548;2023-04-24T12:46:18;1.52;;;1.42;;
72864;SDS011;61000;48.120;11.548;2023-04-24T12:48:45;1.50;;;1.30;;
72864;SDS011;61000;48.120;11.548;2023-04-24T12:51:12;1.42;;;1.33;;
72864;SDS011;61000;48.120;11.548;2023-04-24T12:53:39;1.92;;;1.42;;
72864;SDS011;61000;48.120;11.548;2023-04-24T12:56:07;2.05;;;1.20;;
72864;SDS011;61000;48.120;11.548;2023-04-24T12:58:34;2.08;;;1.50;;
72864;SDS011;61000;48.120;11.548;2023-04-24T13:01:00;1.60;;;1.50;;
72864;SDS011;61000;48.120;11.548;2023-04-24T13:03:27;1.50;;;1.40;;
72864;SDS011;61000;48.120;11.548;2023-04-24T13:05:54;2.67;;;1.20;;
72864;SDS011;61000;48.120;11.548;2023-04-24T13:08:21;1.67;;;1.58;;
72864;SDS011;61000;48.120;11.548;2023-04-24T13:10:48;1.65;;;1.55;;
72864;SDS011;61000;48.120;11.548;2023-04-24T13:13:17;1.63;;;1.40;;
72864;SDS011;61000;48.120;11.548;2023-04-24T13:15:44;1.50;;;1.40;;
72864;SDS011;61000;48.120;11.548;2023-04-24T13:18:11;1.63;;;1.52;;
72864;SDS011;61000;48.120;11.548;2023-04-24T13:20:38;1.63;;;1.48;;
72864;SDS011;61000;48.120;11.548;2023-04-24T13:23:06;1.77;;;1.50;;
72864;SDS011;61000;48.120;11.548;2023-04-24T13:25:36;1.40;;;1.30;;
72864;SDS011;61000;48.120;11.548;2023-04-24T13:28:04;1.40;;;1.30;;
72864;SDS011;61000;48.120;11.548;2023-04-24T13:30:49;1.50;;;1.38;;
72864;SDS011;61000;48.120;11.548;2023-04-24T13:33:16;3.92;;;1.52;;
72864;SDS011;61000;48.120;11.548;2023-04-24T13:35:43;2.10;;;1.70;;
72864;SDS011;61000;48.120;11.548;2023-04-24T13:38:09;2.33;;;1.33;;
72864;SDS011;61000;48.120;11.548;2023-04-24T13:40:36;1.73;;;1.42;;
72864;SDS011;61000;48.120;11.548;2023-04-24T13:43:03;3.65;;;1.80;;
72864;SDS011;61000;48.120;11.548;2023-04-24T13:45:31;4.22;;;1.65;;
72864;SDS011;61000;48.120;11.548;2023-04-24T13:48:00;1.92;;;1.45;;
72864;SDS011;61000;48.120;11.548;2023-04-24T13:50:28;1.48;;;1.23;;
72864;SDS011;61000;48.120;11.548;2023-04-24T13:52:55;1.75;;;1.60;;
72864;SDS011;61000;48.120;11.548;2023-04-24T13:55:22;3.38;;;1.40;;
72864;SDS011;61000;48.120;11.548;2023-04-24T13:57:51;3.38;;;1.67;;
72864;SDS011;61000;48.120;11.548;2023-04-24T14:00:23;3.45;;;1.40;;
72864;SDS011;61000;48.120;11.548;2023-04-24T14:02:50;2.20;;;1.42;;
72864;SDS011;61000;48.120;11.548;2023-04-24T14:05:18;2.78;;;1.92;;
72864;SDS011;61000;48.120;11.548;2023-04-24T14:07:47;1.90;;;1.80;;
72864;SDS011;61000;48.120;11.548;2023-04-24T14:10:14;3.35;;;2.58;;
72864;SDS011;61000;48.120;11.548;2023-04-24T14:12:44;2.35;;;1.63;;
72864;SDS011;61000;48.120;11.548;2023-04-24T14:15:11;3.85;;;2.08;;
72864;SDS011;61000;48.120;11.548;2023-04-24T14:17:38;2.75;;;1.83;;
72864;SDS011;61000;48.120;11.548;2023-04-24T14:20:06;2.97;;;1.63;;
72864;SDS011;61000;48.120;11.548;2023-04-24T14:22:35;1.80;;;1.38;;
72864;SDS011;61000;48.120;11.548;2023-04-24T14:25:03;2.10;;;1.55;;
72864;SDS011;61000;48.120;11.548;2023-04-24T14:27:31;1.42;;;1.33;;
72864;SDS011;61000;48.120;11.548;2023-04-24T14:29:59;3.05;;;1.65;;
72864;SDS011;61000;48.120;11.548;2023-04-24T14:32:28;1.42;;;1.33;;
72864;SDS011;61000;48.120;11.548;2023-04-24T14:34:55;3.00;;;1.98;;
72864;SDS011;61000;48.120;11.548;2023-04-24T14:37:22;1.95;;;1.63;;
72864;SDS011;61000;48.120;11.548;2023-04-24T14:39:50;2.38;;;2.03;;
72864;SDS011;61000;48.120;11.548;2023-04-24T14:42:17;2.90;;;1.65;;